createdAt,value
2016-10-21T00:00:18.979Z,64.77
2016-10-21T00:01:12.855Z,64.74
2016-10-21T00:02:14.852Z,64.74
2016-10-21T00:03:16.530Z,64.73
2016-10-21T00:04:13.874Z,64.77
2016-10-21T00:05:17.165Z,64.76
2016-10-21T00:06:14.737Z,64.76
2016-10-21T00:07:12.808Z,64.76
2016-10-21T00:08:13.415Z,64.72
2016-10-21T00:09:12.284Z,64.72
2016-10-21T00:10:15.439Z,64.70
2016-10-21T00:11:14.035Z,64.74
2016-10-21T00:12:10.343Z,64.78
2016-10-21T00:13:13.419Z,64.77
2016-10-21T00:14:12.423Z,64.82
2016-10-21T00:15:13.208Z,64.79
2016-10-21T00:16:12.743Z,64.75
2016-10-21T00:17:14.756Z,64.76
2016-10-21T00:18:13.154Z,64.80
2016-10-21T00:19:12.911Z,64.81
2016-10-21T00:20:12.958Z,64.77
2016-10-21T00:21:12.382Z,64.80
2016-10-21T00:22:12.822Z,64.82
2016-10-21T00:23:12.649Z,64.81
2016-10-21T00:24:14.903Z,64.84
2016-10-21T00:25:13.766Z,64.82
2016-10-21T00:26:13.086Z,64.85
2016-10-21T00:27:12.664Z,64.85
2016-10-21T00:28:12.807Z,64.86
2016-10-21T00:29:11.805Z,64.85
2016-10-21T00:30:14.194Z,64.81
2016-10-21T00:31:12.683Z,64.81
2016-10-21T00:32:19.361Z,64.90
2016-10-21T00:33:13.365Z,64.91
2016-10-21T00:34:13.046Z,64.89
2016-10-21T00:35:12.913Z,64.93
2016-10-21T00:36:11.146Z,64.93
2016-10-21T00:37:12.674Z,63.97
2016-10-21T00:38:13.227Z,63.74
2016-10-21T00:39:12.933Z,63.93
2016-10-21T00:40:13.787Z,64.55
2016-10-21T00:41:20.661Z,64.76
2016-10-21T00:42:13.289Z,64.82
2016-10-21T00:43:12.926Z,64.90
2016-10-21T00:44:11.960Z,64.89
2016-10-21T00:45:12.012Z,64.89
2016-10-21T00:46:11.965Z,64.90
2016-10-21T00:47:13.618Z,64.98
2016-10-21T00:48:13.750Z,64.94
2016-10-21T00:49:12.624Z,64.97
2016-10-21T00:50:15.359Z,65.00
2016-10-21T00:51:19.237Z,65.02
2016-10-21T00:52:12.077Z,65.08
2016-10-21T00:53:12.838Z,65.04
2016-10-21T00:54:13.428Z,65.03
2016-10-21T00:55:14.103Z,65.07
2016-10-21T00:56:12.989Z,65.09
2016-10-21T00:57:12.797Z,65.07
2016-10-21T00:58:13.398Z,65.10
2016-10-21T00:59:15.626Z,65.04
2016-10-21T01:00:12.800Z,65.03
2016-10-21T01:01:13.701Z,65.08
2016-10-21T01:02:13.582Z,65.12
2016-10-21T01:03:11.375Z,65.10
2016-10-21T01:04:14.567Z,65.12
2016-10-21T01:05:14.075Z,65.18
2016-10-21T01:06:15.670Z,64.20
2016-10-21T01:07:12.769Z,64.04
2016-10-21T01:08:13.423Z,63.94
2016-10-21T01:09:13.026Z,63.84
2016-10-21T01:10:13.459Z,63.83
2016-10-21T01:11:13.854Z,63.80
2016-10-21T01:12:13.564Z,64.78
2016-10-21T01:13:15.418Z,64.95
2016-10-21T01:14:12.517Z,65.08
2016-10-21T01:15:12.920Z,65.13
2016-10-21T01:16:12.414Z,65.14
2016-10-21T01:17:15.395Z,65.19
2016-10-21T01:18:13.186Z,65.20
2016-10-21T01:19:13.721Z,65.23
2016-10-21T01:20:17.090Z,65.31
2016-10-21T01:21:12.167Z,65.22
2016-10-21T01:22:12.210Z,65.22
2016-10-21T01:23:11.256Z,65.26
2016-10-21T01:24:13.317Z,65.29
2016-10-21T01:25:14.423Z,65.27
2016-10-21T01:26:13.431Z,65.29
2016-10-21T01:27:14.059Z,65.30
2016-10-21T01:28:13.859Z,65.28
2016-10-21T01:29:13.803Z,65.33
2016-10-21T01:30:18.377Z,65.34
2016-10-21T01:31:14.016Z,65.35
2016-10-21T01:32:13.197Z,65.43
2016-10-21T01:33:12.817Z,65.49
2016-10-21T01:34:13.182Z,65.45
2016-10-21T01:35:18.452Z,65.43
2016-10-21T01:36:16.213Z,65.35
2016-10-21T01:37:12.442Z,65.34
2016-10-21T01:38:18.831Z,65.39
2016-10-21T01:39:18.892Z,65.40
2016-10-21T01:40:15.712Z,65.41
2016-10-21T01:41:12.807Z,65.38
2016-10-21T01:42:14.204Z,65.41
2016-10-21T01:43:12.050Z,65.46
2016-10-21T01:44:09.594Z,65.42
2016-10-21T01:45:14.563Z,65.42
2016-10-21T01:46:12.867Z,65.46
2016-10-21T01:47:15.275Z,65.54
2016-10-21T01:48:12.683Z,65.52
2016-10-21T01:49:15.242Z,65.55
2016-10-21T01:50:12.746Z,65.56
2016-10-21T01:51:14.169Z,65.51
2016-10-21T01:52:13.354Z,65.53
2016-10-21T01:53:18.910Z,65.56
2016-10-21T01:54:14.149Z,65.55
2016-10-21T01:55:16.340Z,65.61
2016-10-21T01:56:14.246Z,65.63
2016-10-21T01:57:13.417Z,65.60
2016-10-21T01:58:14.009Z,65.59
2016-10-21T01:59:12.445Z,65.64
2016-10-21T02:00:13.939Z,65.57
2016-10-21T02:01:11.854Z,65.57
2016-10-21T02:02:12.959Z,65.56
2016-10-21T02:03:14.784Z,65.59
2016-10-21T02:04:18.526Z,65.59
2016-10-21T02:05:13.614Z,65.57
2016-10-21T02:06:15.025Z,65.55
2016-10-21T02:07:10.343Z,65.60
2016-10-21T02:08:14.068Z,64.59
2016-10-21T02:09:12.643Z,64.41
2016-10-21T02:10:13.754Z,64.31
2016-10-21T02:11:19.811Z,64.23
2016-10-21T02:12:17.500Z,64.29
2016-10-21T02:13:13.413Z,64.17
2016-10-21T02:14:13.624Z,64.57
2016-10-21T02:15:15.819Z,65.25
2016-10-21T02:16:13.409Z,65.44
2016-10-21T02:17:12.535Z,65.55
2016-10-21T02:18:12.830Z,65.52
2016-10-21T02:19:13.365Z,65.55
2016-10-21T02:20:13.623Z,65.67
2016-10-21T02:21:12.701Z,65.67
2016-10-21T02:22:14.235Z,65.67
2016-10-21T02:23:13.470Z,65.75
2016-10-21T02:24:19.003Z,65.72
2016-10-21T02:25:18.965Z,65.71
2016-10-21T02:26:17.985Z,65.71
2016-10-21T02:27:13.678Z,65.70
2016-10-21T02:28:13.491Z,65.70
2016-10-21T02:29:15.366Z,65.73
2016-10-21T02:30:19.776Z,65.75
2016-10-21T02:31:13.686Z,65.68
2016-10-21T02:32:14.324Z,65.73
2016-10-21T02:33:14.759Z,65.74
2016-10-21T02:34:12.750Z,65.69
2016-10-21T02:35:12.998Z,65.70
2016-10-21T02:36:13.841Z,65.76
2016-10-21T02:37:13.034Z,65.82
2016-10-21T02:38:13.299Z,65.81
2016-10-21T02:39:12.158Z,65.87
2016-10-21T02:40:11.997Z,65.88
2016-10-21T02:41:12.402Z,65.89
2016-10-21T02:42:13.172Z,65.92
2016-10-21T02:43:12.305Z,65.92
2016-10-21T02:44:18.311Z,65.94
2016-10-21T02:45:12.998Z,65.97
2016-10-21T02:46:11.185Z,65.96
2016-10-21T02:47:13.217Z,64.87
2016-10-21T02:48:13.046Z,64.72
2016-10-21T02:49:12.099Z,64.70
2016-10-21T02:50:13.926Z,64.70
2016-10-21T02:51:12.822Z,64.65
2016-10-21T02:52:18.681Z,64.52
2016-10-21T02:53:14.488Z,64.68
2016-10-21T02:54:12.533Z,64.56
2016-10-21T02:55:13.224Z,65.58
2016-10-21T02:56:13.410Z,65.78
2016-10-21T02:57:12.416Z,65.89
2016-10-21T02:58:12.526Z,65.97
2016-10-21T02:59:13.125Z,65.99
2016-10-21T03:00:12.665Z,66.00
2016-10-21T03:01:13.265Z,65.99
2016-10-21T03:02:13.237Z,66.01
2016-10-21T03:03:12.391Z,65.94
2016-10-21T03:04:13.209Z,66.02
2016-10-21T03:05:12.266Z,66.09
2016-10-21T03:06:14.060Z,66.05
2016-10-21T03:07:17.724Z,66.12
2016-10-21T03:08:13.539Z,66.17
2016-10-21T03:09:15.381Z,66.20
2016-10-21T03:10:13.259Z,66.13
2016-10-21T03:11:12.095Z,66.21
2016-10-21T03:12:12.668Z,66.24
2016-10-21T03:13:12.638Z,66.22
2016-10-21T03:14:13.163Z,66.15
2016-10-21T03:15:12.169Z,66.24
2016-10-21T03:16:12.749Z,66.28
2016-10-21T03:17:12.954Z,66.19
2016-10-21T03:18:12.017Z,66.22
2016-10-21T03:19:12.067Z,66.27
2016-10-21T03:20:12.627Z,66.28
2016-10-21T03:21:13.699Z,66.34
2016-10-21T03:22:12.730Z,66.22
2016-10-21T03:23:13.051Z,66.31
2016-10-21T03:24:13.253Z,66.36
2016-10-21T03:25:13.426Z,66.34
2016-10-21T03:26:14.159Z,66.31
2016-10-21T03:27:13.194Z,66.40
2016-10-21T03:28:13.035Z,66.35
2016-10-21T03:29:20.223Z,66.36
2016-10-21T03:30:20.150Z,66.35
2016-10-21T03:31:12.308Z,66.29
2016-10-21T03:32:12.945Z,66.26
2016-10-21T03:33:12.637Z,66.29
2016-10-21T03:34:12.598Z,66.33
2016-10-21T03:35:12.628Z,66.32
2016-10-21T03:36:13.406Z,66.33
2016-10-21T03:37:11.386Z,66.40
2016-10-21T03:38:13.307Z,66.22
2016-10-21T03:39:13.672Z,65.32
2016-10-21T03:40:11.737Z,65.03
2016-10-21T03:41:13.472Z,64.98
2016-10-21T03:42:13.473Z,64.97
2016-10-21T03:43:14.684Z,66.01
2016-10-21T03:44:14.469Z,66.12
2016-10-21T03:45:12.353Z,66.30
2016-10-21T03:46:12.385Z,66.35
2016-10-21T03:47:13.169Z,66.35
2016-10-21T03:48:12.803Z,66.28
2016-10-21T03:49:19.201Z,66.23
2016-10-21T03:50:12.723Z,66.32
2016-10-21T03:51:13.680Z,66.35
2016-10-21T03:52:13.325Z,66.37
2016-10-21T03:53:13.529Z,66.38
2016-10-21T03:54:13.047Z,66.36
2016-10-21T03:55:12.601Z,66.36
2016-10-21T03:56:13.477Z,66.32
2016-10-21T03:57:13.263Z,66.44
2016-10-21T03:58:18.073Z,66.40
2016-10-21T03:59:13.109Z,66.39
2016-10-21T04:00:13.910Z,65.69
2016-10-21T04:01:13.626Z,66.18
2016-10-21T04:02:13.514Z,66.29
2016-10-21T04:03:13.108Z,66.33
2016-10-21T04:04:11.204Z,66.37
2016-10-21T04:05:14.887Z,66.43
2016-10-21T04:06:14.005Z,66.47
2016-10-21T04:07:13.560Z,66.44
2016-10-21T04:08:11.716Z,66.42
2016-10-21T04:09:12.767Z,66.54
2016-10-21T04:10:13.264Z,66.46
2016-10-21T04:11:13.407Z,66.48
2016-10-21T04:12:12.549Z,66.56
2016-10-21T04:13:12.643Z,66.48
2016-10-21T04:14:13.862Z,66.51
2016-10-21T04:15:13.610Z,66.51
2016-10-21T04:16:14.154Z,66.53
2016-10-21T04:17:13.101Z,66.48
2016-10-21T04:18:13.256Z,66.53
2016-10-21T04:19:12.236Z,66.45
2016-10-21T04:20:19.078Z,66.55
2016-10-21T04:21:12.461Z,66.64
2016-10-21T04:22:13.688Z,66.76
2016-10-21T04:23:12.844Z,66.87
2016-10-21T04:24:13.484Z,66.79
2016-10-21T04:25:17.107Z,66.85
2016-10-21T04:26:11.905Z,67.03
2016-10-21T04:27:15.048Z,66.97
2016-10-21T04:28:14.085Z,67.05
2016-10-21T04:29:12.851Z,67.02
2016-10-21T04:30:13.436Z,67.04
2016-10-21T04:31:13.386Z,66.97
2016-10-21T04:32:11.365Z,66.97
2016-10-21T04:33:19.954Z,67.00
2016-10-21T04:34:12.350Z,66.91
2016-10-21T04:35:12.741Z,66.89
2016-10-21T04:36:12.757Z,66.90
2016-10-21T04:37:11.516Z,66.78
2016-10-21T04:38:18.705Z,65.92
2016-10-21T04:39:13.194Z,65.67
2016-10-21T04:40:12.829Z,65.54
2016-10-21T04:41:15.019Z,65.51
2016-10-21T04:42:12.847Z,66.75
2016-10-21T04:43:14.651Z,66.82
2016-10-21T04:44:12.503Z,66.88
2016-10-21T04:45:12.441Z,66.98
2016-10-21T04:46:13.097Z,66.84
2016-10-21T04:47:13.004Z,66.95
2016-10-21T04:48:13.042Z,66.97
2016-10-21T04:49:12.111Z,67.01
2016-10-21T04:50:12.126Z,67.02
2016-10-21T04:51:12.207Z,66.99
2016-10-21T04:52:13.274Z,66.97
2016-10-21T04:53:12.279Z,66.93
2016-10-21T04:54:13.926Z,66.89
2016-10-21T04:55:12.415Z,66.89
2016-10-21T04:56:13.061Z,66.96
2016-10-21T04:57:12.635Z,67.16
2016-10-21T04:58:12.617Z,67.04
2016-10-21T04:59:12.625Z,66.92
2016-10-21T05:00:13.351Z,67.13
2016-10-21T05:01:12.841Z,67.08
2016-10-21T05:02:12.818Z,66.97
2016-10-21T05:03:12.809Z,66.90
2016-10-21T05:04:13.816Z,66.80
2016-10-21T05:05:13.346Z,66.75
2016-10-21T05:06:10.427Z,66.74
2016-10-21T05:07:18.910Z,66.78
2016-10-21T05:08:13.342Z,66.75
2016-10-21T05:09:12.807Z,66.73
2016-10-21T05:10:14.157Z,66.71
2016-10-21T05:11:12.979Z,66.80
2016-10-21T05:12:12.039Z,66.77
2016-10-21T05:13:12.105Z,66.71
2016-10-21T05:14:10.415Z,66.76
2016-10-21T05:15:14.021Z,66.06
2016-10-21T05:16:12.626Z,66.55
2016-10-21T05:17:11.570Z,66.71
2016-10-21T05:18:13.068Z,65.56
2016-10-21T05:19:18.296Z,66.49
2016-10-21T05:20:12.278Z,66.65
2016-10-21T05:21:12.978Z,66.56
2016-10-21T05:22:11.961Z,65.59
2016-10-21T05:23:12.139Z,65.45
2016-10-21T05:24:12.175Z,65.36
2016-10-21T05:25:13.931Z,65.34
2016-10-21T05:26:10.171Z,65.31
2016-10-21T05:27:15.724Z,66.35
2016-10-21T05:28:13.281Z,66.45
2016-10-21T05:29:13.030Z,66.62
2016-10-21T05:30:12.974Z,66.58
2016-10-21T05:31:12.212Z,66.62
2016-10-21T05:32:13.247Z,66.64
2016-10-21T05:33:13.013Z,66.71
2016-10-21T05:34:13.801Z,66.76
2016-10-21T05:35:13.565Z,66.82
2016-10-21T05:36:13.431Z,66.84
2016-10-21T05:37:13.125Z,66.79
2016-10-21T05:38:12.891Z,66.78
2016-10-21T05:39:19.933Z,66.86
2016-10-21T05:40:12.492Z,66.86
2016-10-21T05:41:13.159Z,66.93
2016-10-21T05:42:13.340Z,66.95
2016-10-21T05:43:13.003Z,66.99
2016-10-21T05:44:11.660Z,67.00
2016-10-21T05:45:16.403Z,66.98
2016-10-21T05:46:13.226Z,66.97
2016-10-21T05:47:12.712Z,66.99
2016-10-21T05:48:13.009Z,67.07
2016-10-21T05:49:10.923Z,67.08
2016-10-21T05:50:13.189Z,67.13
2016-10-21T05:51:11.033Z,66.96
2016-10-21T05:52:12.040Z,66.98
2016-10-21T05:53:12.655Z,67.07
2016-10-21T05:54:12.773Z,67.04
2016-10-21T05:55:13.390Z,67.02
2016-10-21T05:56:13.587Z,67.09
2016-10-21T05:57:13.262Z,67.08
2016-10-21T05:58:18.767Z,67.08
2016-10-21T05:59:12.737Z,67.07
2016-10-21T06:00:13.617Z,67.01
2016-10-21T06:01:13.200Z,66.98
2016-10-21T06:02:12.267Z,66.98
2016-10-21T06:03:13.660Z,67.03
2016-10-21T06:04:14.141Z,67.00
2016-10-21T06:05:17.747Z,67.07
2016-10-21T06:06:12.885Z,66.85
2016-10-21T06:07:14.034Z,67.22
2016-10-21T06:08:12.163Z,67.42
2016-10-21T06:09:13.908Z,67.46
2016-10-21T06:10:21.512Z,67.57
2016-10-21T06:11:13.137Z,67.47
2016-10-21T06:12:12.792Z,67.35
2016-10-21T06:13:13.447Z,67.31
2016-10-21T06:14:13.038Z,67.42
2016-10-21T06:15:12.106Z,67.43
2016-10-21T06:16:12.124Z,67.57
2016-10-21T06:17:12.320Z,67.48
2016-10-21T06:18:12.330Z,67.26
2016-10-21T06:19:12.457Z,67.14
2016-10-21T06:20:14.144Z,67.39
2016-10-21T06:21:32.716Z,67.58
2016-10-21T06:22:15.439Z,67.45
2016-10-21T06:23:13.482Z,67.71
2016-10-21T06:24:18.142Z,67.50
2016-10-21T06:25:12.636Z,67.33
2016-10-21T06:26:11.152Z,67.88
2016-10-21T06:27:13.007Z,66.56
2016-10-21T06:28:11.087Z,66.51
2016-10-21T06:29:12.788Z,66.39
2016-10-21T06:30:13.631Z,66.42
2016-10-21T06:31:12.682Z,66.26
2016-10-21T06:32:13.540Z,66.21
2016-10-21T06:33:12.505Z,66.22
2016-10-21T06:34:13.300Z,66.18
2016-10-21T06:35:12.383Z,66.25
2016-10-21T06:36:12.864Z,65.95
2016-10-21T06:37:13.640Z,66.02
2016-10-21T06:38:12.942Z,65.93
2016-10-21T06:39:12.023Z,65.97
2016-10-21T06:40:12.695Z,65.88
2016-10-21T06:41:12.790Z,66.21
2016-10-21T06:42:10.479Z,61.59
2016-10-21T06:43:13.620Z,50.49
2016-10-21T06:44:13.349Z,51.46
2016-10-21T06:45:13.184Z,54.21
2016-10-21T06:46:16.297Z,54.11
2016-10-21T06:47:14.037Z,53.17
2016-10-21T06:48:11.997Z,54.29
2016-10-21T06:49:11.996Z,56.51
2016-10-21T06:50:11.937Z,57.06
2016-10-21T06:51:12.994Z,57.52
2016-10-21T06:52:12.628Z,58.59
2016-10-21T06:53:13.438Z,59.40
2016-10-21T06:54:12.595Z,59.14
2016-10-21T06:55:12.651Z,58.88
2016-10-21T06:56:15.490Z,59.00
2016-10-21T06:57:15.090Z,59.02
2016-10-21T06:58:13.539Z,59.09
2016-10-21T06:59:12.524Z,59.00
2016-10-21T07:00:13.451Z,58.97
2016-10-21T07:01:13.523Z,58.99
2016-10-21T07:02:13.447Z,59.05
2016-10-21T07:03:12.657Z,59.38
2016-10-21T07:04:13.682Z,59.73
2016-10-21T07:05:14.267Z,59.62
2016-10-21T07:06:12.058Z,60.08
2016-10-21T07:07:12.119Z,59.79
2016-10-21T07:08:12.232Z,63.64
2016-10-21T07:09:12.380Z,62.03
2016-10-21T07:10:13.289Z,63.33
2016-10-21T07:11:18.653Z,64.94
2016-10-21T07:12:14.259Z,64.98
2016-10-21T07:13:13.327Z,65.09
2016-10-21T07:14:11.428Z,64.73
2016-10-21T07:15:12.413Z,63.71
2016-10-21T07:16:13.179Z,64.17
2016-10-21T07:17:12.633Z,64.10
2016-10-21T07:18:12.626Z,64.12
2016-10-21T07:19:12.516Z,64.12
2016-10-21T07:20:13.169Z,63.91
2016-10-21T07:21:12.870Z,63.86
2016-10-21T07:22:13.008Z,63.83
2016-10-21T07:23:12.617Z,63.77
2016-10-21T07:24:12.012Z,63.72
2016-10-21T07:25:18.982Z,63.61
2016-10-21T07:26:10.732Z,63.76
2016-10-21T07:27:12.750Z,63.57
2016-10-21T07:28:13.436Z,63.63
2016-10-21T07:29:18.450Z,63.53
2016-10-21T07:30:12.154Z,63.41
2016-10-21T07:31:12.233Z,63.41
2016-10-21T07:32:12.279Z,63.44
2016-10-21T07:33:12.356Z,63.45
2016-10-21T07:34:13.064Z,63.39
2016-10-21T07:35:14.337Z,63.31
2016-10-21T07:36:13.035Z,63.25
2016-10-21T07:37:12.988Z,63.29
2016-10-21T07:38:12.790Z,63.23
2016-10-21T07:39:13.310Z,63.21
2016-10-21T07:40:12.281Z,63.17
2016-10-21T07:41:13.046Z,63.15
2016-10-21T07:42:12.010Z,63.02
2016-10-21T07:43:13.680Z,62.10
2016-10-21T07:44:13.379Z,62.54
2016-10-21T07:45:12.401Z,61.56
2016-10-21T07:46:12.477Z,62.53
2016-10-21T07:47:11.305Z,62.70
2016-10-21T07:48:13.523Z,61.85
2016-10-21T07:49:14.372Z,62.00
2016-10-21T07:50:11.124Z,62.51
2016-10-21T07:51:12.036Z,61.77
2016-10-21T07:52:12.823Z,61.56
2016-10-21T07:53:13.612Z,61.43
2016-10-21T07:54:13.234Z,61.39
2016-10-21T07:55:13.232Z,61.26
2016-10-21T07:56:12.180Z,61.20
2016-10-21T07:57:12.073Z,61.15
2016-10-21T07:58:12.664Z,61.09
2016-10-21T07:59:13.396Z,61.11
2016-10-21T08:00:12.364Z,61.09
2016-10-21T08:01:13.112Z,62.02
2016-10-21T08:02:13.833Z,62.22
2016-10-21T08:03:13.063Z,62.33
2016-10-21T08:04:11.234Z,62.49
2016-10-21T08:05:12.842Z,62.51
2016-10-21T08:06:14.585Z,62.49
2016-10-21T08:07:12.826Z,62.53
2016-10-21T08:08:12.833Z,62.84
2016-10-21T08:09:13.663Z,62.65
2016-10-21T08:10:13.430Z,62.69
2016-10-21T08:11:15.154Z,62.78
2016-10-21T08:12:12.647Z,62.72
2016-10-21T08:13:13.613Z,62.72
2016-10-21T08:14:14.431Z,62.66
2016-10-21T08:15:13.422Z,62.66
2016-10-21T08:16:12.980Z,62.63
2016-10-21T08:17:13.189Z,62.64
2016-10-21T08:18:12.806Z,62.63
2016-10-21T08:19:14.157Z,62.62
2016-10-21T08:20:12.917Z,62.62
2016-10-21T08:21:15.026Z,62.64
2016-10-21T08:22:17.608Z,62.65
2016-10-21T08:23:13.527Z,62.67
2016-10-21T08:24:13.234Z,62.66
2016-10-21T08:25:13.306Z,62.67
2016-10-21T08:26:12.370Z,62.68
2016-10-21T08:27:11.067Z,62.82
2016-10-21T08:28:13.569Z,63.22
2016-10-21T08:29:12.695Z,63.31
2016-10-21T08:30:13.376Z,63.61
2016-10-21T08:31:11.322Z,63.30
2016-10-21T08:32:12.079Z,62.35
2016-10-21T08:33:13.613Z,62.19
2016-10-21T08:34:13.367Z,61.94
2016-10-21T08:35:13.033Z,62.05
2016-10-21T08:36:12.874Z,61.86
2016-10-21T08:37:10.722Z,61.95
2016-10-21T08:38:13.554Z,61.97
2016-10-21T08:39:13.683Z,61.98
2016-10-21T08:40:13.611Z,61.93
2016-10-21T08:41:12.629Z,62.16
2016-10-21T08:42:13.600Z,62.92
2016-10-21T08:43:11.339Z,63.13
2016-10-21T08:44:12.223Z,62.21
2016-10-21T08:45:12.829Z,62.07
2016-10-21T08:46:12.819Z,62.10
2016-10-21T08:47:12.821Z,62.95
2016-10-21T08:48:13.373Z,63.05
2016-10-21T08:49:12.908Z,63.15
2016-10-21T08:50:13.869Z,63.15
2016-10-21T08:51:13.566Z,63.24
2016-10-21T08:52:13.290Z,63.27
2016-10-21T08:53:12.090Z,63.19
2016-10-21T08:54:12.482Z,63.24
2016-10-21T08:55:12.377Z,63.23
2016-10-21T08:56:12.430Z,63.11
2016-10-21T08:57:12.628Z,63.16
2016-10-21T08:58:12.752Z,63.11
2016-10-21T08:59:12.829Z,63.15
2016-10-21T09:00:12.033Z,63.16
2016-10-21T09:01:10.998Z,63.09
2016-10-21T09:02:13.025Z,62.19
2016-10-21T09:03:11.951Z,61.93
2016-10-21T09:04:11.921Z,62.79
2016-10-21T09:05:13.223Z,62.88
2016-10-21T09:06:12.838Z,63.00
2016-10-21T09:07:13.606Z,62.96
2016-10-21T09:08:12.799Z,63.00
2016-10-21T09:09:13.518Z,62.97
2016-10-21T09:10:12.481Z,62.98
2016-10-21T09:11:12.991Z,62.91
2016-10-21T09:12:12.823Z,62.91
2016-10-21T09:13:12.700Z,62.99
2016-10-21T09:14:13.387Z,62.85
2016-10-21T09:15:13.182Z,62.94
2016-10-21T09:16:13.011Z,62.80
2016-10-21T09:17:12.843Z,62.80
2016-10-21T09:18:12.957Z,62.44
2016-10-21T09:19:12.635Z,60.37
2016-10-21T09:20:13.178Z,61.36
2016-10-21T09:21:12.239Z,61.82
2016-10-21T09:22:13.832Z,61.87
2016-10-21T09:23:13.631Z,61.82
2016-10-21T09:24:19.867Z,61.95
2016-10-21T09:25:11.779Z,59.92
2016-10-21T09:26:12.935Z,60.06
2016-10-21T09:27:12.364Z,61.22
2016-10-21T09:28:12.947Z,59.72
2016-10-21T09:29:12.083Z,60.49
2016-10-21T09:30:14.800Z,60.34
2016-10-21T09:31:13.331Z,60.93
2016-10-21T09:32:13.164Z,60.72
2016-10-21T09:33:12.982Z,60.00
2016-10-21T09:34:12.015Z,60.51
2016-10-21T09:35:12.376Z,59.61
2016-10-21T09:36:12.358Z,59.91
2016-10-21T09:37:12.802Z,60.01
2016-10-21T09:38:12.756Z,59.85
2016-10-21T09:39:13.076Z,60.75
2016-10-21T09:40:12.087Z,60.33
2016-10-21T09:41:12.829Z,61.23
2016-10-21T09:42:13.547Z,60.37
2016-10-21T09:43:13.152Z,60.44
2016-10-21T09:44:13.052Z,60.73
2016-10-21T09:45:12.130Z,59.77
2016-10-21T09:46:14.061Z,60.32
2016-10-21T09:47:13.672Z,61.06
2016-10-21T09:48:12.637Z,61.28
2016-10-21T09:49:12.426Z,61.08
2016-10-21T09:50:12.518Z,61.87
2016-10-21T09:51:13.958Z,62.35
2016-10-21T09:52:11.911Z,62.48
2016-10-21T09:53:12.818Z,63.04
2016-10-21T09:54:13.354Z,62.73
2016-10-21T09:55:13.073Z,62.75
2016-10-21T09:56:13.007Z,62.60
2016-10-21T09:57:12.880Z,62.44
2016-10-21T09:58:18.588Z,62.37
2016-10-21T09:59:13.151Z,62.26
2016-10-21T10:00:13.944Z,62.20
2016-10-21T10:01:12.842Z,62.14
2016-10-21T10:02:12.808Z,62.16
2016-10-21T10:03:13.560Z,62.33
2016-10-21T10:04:12.647Z,62.39
2016-10-21T10:05:14.447Z,62.90
2016-10-21T10:06:13.151Z,62.63
2016-10-21T10:07:19.483Z,62.49
2016-10-21T10:08:14.384Z,62.55
2016-10-21T10:09:12.366Z,62.54
2016-10-21T10:10:12.504Z,62.54
2016-10-21T10:11:13.036Z,62.74
2016-10-21T10:12:12.607Z,62.79
2016-10-21T10:13:12.629Z,62.62
2016-10-21T10:14:13.180Z,62.67
2016-10-21T10:15:13.801Z,62.73
2016-10-21T10:16:13.034Z,62.81
2016-10-21T10:17:11.028Z,62.78
2016-10-21T10:18:12.189Z,62.83
2016-10-21T10:19:12.072Z,62.86
2016-10-21T10:20:10.323Z,62.83
2016-10-21T10:21:12.622Z,62.18
2016-10-21T10:22:14.447Z,62.67
2016-10-21T10:23:13.362Z,62.99
2016-10-21T10:24:12.324Z,63.10
2016-10-21T10:25:11.685Z,63.04
2016-10-21T10:26:13.216Z,63.27
2016-10-21T10:27:13.046Z,63.11
2016-10-21T10:28:10.206Z,63.07
2016-10-21T10:29:13.077Z,62.99
2016-10-21T10:30:12.399Z,62.98
2016-10-21T10:31:12.990Z,62.93
2016-10-21T10:32:12.447Z,62.92
2016-10-21T10:33:11.569Z,63.11
2016-10-21T10:34:10.684Z,63.22
2016-10-21T10:35:12.470Z,63.50
2016-10-21T10:36:12.997Z,63.55
2016-10-21T10:37:12.786Z,63.67
2016-10-21T10:38:12.779Z,63.45
2016-10-21T10:39:11.520Z,63.34
2016-10-21T10:40:14.660Z,63.39
2016-10-21T10:41:12.991Z,63.39
2016-10-21T10:42:12.041Z,63.62
2016-10-21T10:43:12.166Z,63.52
2016-10-21T10:44:12.898Z,63.33
2016-10-21T10:45:13.030Z,63.38
2016-10-21T10:46:12.162Z,63.39
2016-10-21T10:47:12.874Z,63.42
2016-10-21T10:48:15.402Z,63.52
2016-10-21T10:49:12.636Z,63.40
2016-10-21T10:50:13.266Z,63.37
2016-10-21T10:51:15.005Z,63.35
2016-10-21T10:52:12.047Z,63.44
2016-10-21T10:53:12.840Z,63.31
2016-10-21T10:54:12.800Z,63.49
2016-10-21T10:55:13.613Z,63.36
2016-10-21T10:56:13.525Z,63.29
2016-10-21T10:57:11.342Z,63.54
2016-10-21T10:58:12.896Z,62.42
2016-10-21T10:59:10.961Z,62.52
2016-10-21T11:00:13.956Z,61.99
2016-10-21T11:01:12.589Z,61.87
2016-10-21T11:02:12.521Z,61.76
2016-10-21T11:03:12.476Z,62.60
2016-10-21T11:04:13.128Z,62.73
2016-10-21T11:05:12.080Z,62.90
2016-10-21T11:06:12.027Z,62.91
2016-10-21T11:07:11.133Z,62.77
2016-10-21T11:08:11.932Z,61.93
2016-10-21T11:09:12.395Z,61.85
2016-10-21T11:10:13.671Z,61.69
2016-10-21T11:11:13.499Z,61.93
2016-10-21T11:12:12.311Z,62.52
2016-10-21T11:13:12.269Z,62.76
2016-10-21T11:14:13.970Z,62.89
2016-10-21T11:15:12.079Z,62.88
2016-10-21T11:16:18.383Z,62.90
2016-10-21T11:17:10.675Z,63.00
2016-10-21T11:18:13.163Z,62.01
2016-10-21T11:19:12.843Z,61.84
2016-10-21T11:20:14.139Z,61.69
2016-10-21T11:21:12.417Z,61.61
2016-10-21T11:22:13.425Z,61.71
2016-10-21T11:23:12.566Z,62.53
2016-10-21T11:24:18.745Z,62.71
2016-10-21T11:25:13.345Z,62.86
2016-10-21T11:26:12.319Z,62.90
2016-10-21T11:27:13.051Z,62.99
2016-10-21T11:28:13.533Z,62.95
2016-10-21T11:29:14.068Z,62.94
2016-10-21T11:30:12.703Z,62.88
2016-10-21T11:31:12.713Z,62.93
2016-10-21T11:32:13.268Z,63.00
2016-10-21T11:33:13.024Z,63.01
2016-10-21T11:34:12.061Z,63.00
2016-10-21T11:35:12.649Z,63.01
2016-10-21T11:36:12.637Z,63.05
2016-10-21T11:37:13.274Z,63.05
2016-10-21T11:38:12.938Z,63.07
2016-10-21T11:39:12.417Z,63.10
2016-10-21T11:40:12.450Z,63.06
2016-10-21T11:41:12.802Z,63.05
2016-10-21T11:42:13.488Z,63.10
2016-10-21T11:43:21.823Z,63.12
2016-10-21T11:44:14.476Z,63.08
2016-10-21T11:45:14.129Z,63.10
2016-10-21T11:46:12.790Z,63.09
2016-10-21T11:47:12.878Z,63.08
2016-10-21T11:48:13.555Z,63.09
2016-10-21T11:49:13.068Z,63.12
2016-10-21T11:50:14.509Z,63.15
2016-10-21T11:51:16.096Z,63.09
2016-10-21T11:52:12.434Z,62.94
2016-10-21T11:53:13.198Z,62.16
2016-10-21T11:54:18.303Z,62.07
2016-10-21T11:55:12.147Z,61.87
2016-10-21T11:56:10.291Z,61.85
2016-10-21T11:57:12.827Z,61.76
2016-10-21T11:58:13.618Z,62.70
2016-10-21T11:59:12.627Z,62.92
2016-10-21T12:00:13.154Z,62.98
2016-10-21T12:01:12.202Z,63.04
2016-10-21T12:02:13.014Z,63.14
2016-10-21T12:03:13.008Z,63.12
2016-10-21T12:04:11.928Z,63.13
2016-10-21T12:05:13.191Z,63.16
2016-10-21T12:06:12.086Z,63.17
2016-10-21T12:07:10.262Z,63.26
2016-10-21T12:08:13.167Z,63.26
2016-10-21T12:09:12.875Z,63.24
2016-10-21T12:10:13.548Z,63.28
2016-10-21T12:11:14.260Z,63.29
2016-10-21T12:12:12.335Z,63.34
2016-10-21T12:13:12.401Z,63.37
2016-10-21T12:14:14.350Z,63.39
2016-10-21T12:15:12.294Z,63.39
2016-10-21T12:16:13.052Z,63.40
2016-10-21T12:17:12.068Z,63.37
2016-10-21T12:18:12.131Z,63.39
2016-10-21T12:19:12.263Z,63.42
2016-10-21T12:20:13.221Z,63.48
2016-10-21T12:21:14.994Z,63.44
2016-10-21T12:22:12.401Z,63.45
2016-10-21T12:23:13.167Z,63.51
2016-10-21T12:24:12.362Z,63.51
2016-10-21T12:25:14.175Z,63.56
2016-10-21T12:26:10.917Z,63.49
2016-10-21T12:27:15.413Z,62.64
2016-10-21T12:28:12.410Z,63.33
2016-10-21T12:29:13.199Z,63.42
2016-10-21T12:30:12.764Z,63.50
2016-10-21T12:31:13.169Z,63.53
2016-10-21T12:32:12.216Z,63.48
2016-10-21T12:33:13.015Z,63.53
2016-10-21T12:34:12.661Z,63.57
2016-10-21T12:35:13.499Z,63.53
2016-10-21T12:36:12.399Z,63.62
2016-10-21T12:37:12.351Z,63.66
2016-10-21T12:38:12.411Z,63.61
2016-10-21T12:39:13.169Z,63.65
2016-10-21T12:40:12.141Z,63.70
2016-10-21T12:41:12.047Z,63.66
2016-10-21T12:42:12.665Z,63.63
2016-10-21T12:43:12.644Z,63.67
2016-10-21T12:44:12.797Z,63.70
2016-10-21T12:45:13.475Z,63.69
2016-10-21T12:46:14.280Z,63.73
2016-10-21T12:47:12.063Z,63.67
2016-10-21T12:48:12.092Z,63.74
2016-10-21T12:49:11.989Z,63.69
2016-10-21T12:50:12.072Z,63.75
2016-10-21T12:51:12.648Z,63.74
2016-10-21T12:52:13.423Z,63.67